createdAt,value
2023-07-25T00:00:09.081Z,97048.81
2023-07-25T00:00:20.912Z,97046.13
2023-07-25T00:00:32.674Z,97043.47
2023-07-25T00:00:44.412Z,97041.56
2023-07-25T00:00:56.139Z,97043.47
2023-07-25T00:01:08.948Z,97040.00
2023-07-25T00:01:21.735Z,97040.28
2023-07-25T00:01:33.715Z,97045.66
2023-07-25T00:01:45.890Z,97042.47
2023-07-25T00:01:57.905Z,97039.78
2023-07-25T00:02:09.719Z,97037.09
2023-07-25T00:02:21.510Z,97034.72
2023-07-25T00:02:33.235Z,97043.56
2023-07-25T00:02:44.944Z,97034.41
2023-07-25T00:02:56.677Z,97040.88
2023-07-25T00:03:08.492Z,97040.09
2023-07-25T00:03:20.178Z,97035.00
2023-07-25T00:03:33.040Z,97035.56
2023-07-25T00:03:44.781Z,97033.22
2023-07-25T00:03:56.551Z,97041.53
2023-07-25T00:04:09.285Z,97034.59
2023-07-25T00:04:21.085Z,97035.38
2023-07-25T00:04:32.788Z,97041.53
2023-07-25T00:04:44.495Z,97035.09
2023-07-25T00:04:57.570Z,97039.66
2023-07-25T00:05:11.521Z,97037.78
2023-07-25T00:05:23.210Z,97036.97
2023-07-25T00:05:36.130Z,97037.78
2023-07-25T00:05:47.851Z,97040.16
2023-07-25T00:06:01.681Z,97041.25
2023-07-25T00:06:13.362Z,97037.28
2023-07-25T00:06:25.076Z,97038.34
2023-07-25T00:06:36.829Z,97034.09
2023-07-25T00:06:48.519Z,97036.28
2023-07-25T00:07:01.163Z,97040.53
2023-07-25T00:07:12.928Z,97032.50
2023-07-25T00:07:24.904Z,97032.78
2023-07-25T00:07:36.574Z,97035.16
2023-07-25T00:07:48.756Z,97037.06
2023-07-25T00:08:00.433Z,97034.09
2023-07-25T00:08:12.188Z,97034.09
2023-07-25T00:08:23.957Z,97030.31
2023-07-25T00:08:35.822Z,97031.09
2023-07-25T00:08:48.853Z,97037.28
2023-07-25T00:09:00.704Z,97027.63
2023-07-25T00:09:12.374Z,97032.22
2023-07-25T00:09:24.072Z,97038.97
2023-07-25T00:09:35.760Z,97034.66
2023-07-25T00:09:47.451Z,97036.56
2023-07-25T00:09:59.447Z,97034.66
2023-07-25T00:10:11.168Z,97030.69
2023-07-25T00:10:22.952Z,97032.88
2023-07-25T00:10:34.976Z,97028.31
2023-07-25T00:10:46.644Z,97033.69
2023-07-25T00:10:59.388Z,97032.88
2023-07-25T00:11:13.904Z,97032.88
2023-07-25T00:11:25.619Z,97032.06
2023-07-25T00:11:37.336Z,97032.06
2023-07-25T00:11:49.048Z,97039.03
2023-07-25T00:12:00.712Z,97029.91
2023-07-25T00:12:12.407Z,97032.59
2023-07-25T00:12:24.253Z,97035.28
2023-07-25T00:12:36.021Z,97028.00
2023-07-25T00:12:47.708Z,97034.47
2023-07-25T00:13:00.375Z,97027.00
2023-07-25T00:13:12.083Z,97028.13
2023-07-25T00:13:23.793Z,97034.88
2023-07-25T00:13:35.515Z,97033.00
2023-07-25T00:13:47.245Z,97034.06
2023-07-25T00:13:58.953Z,97033.28
2023-07-25T00:14:10.651Z,97031.09
2023-07-25T00:14:22.441Z,97023.03
2023-07-25T00:14:35.938Z,97027.63
2023-07-25T00:14:47.719Z,97030.00
2023-07-25T00:14:59.395Z,97031.59
2023-07-25T00:15:11.773Z,97034.25
2023-07-25T00:15:23.486Z,97029.69
2023-07-25T00:15:35.231Z,97027.81
2023-07-25T00:15:46.916Z,97032.38
2023-07-25T00:15:58.797Z,97024.63
2023-07-25T00:16:10.514Z,97028.13
2023-07-25T00:16:23.254Z,97027.00
2023-07-25T00:16:35.064Z,97028.91
2023-07-25T00:16:47.091Z,97024.34
2023-07-25T00:16:58.913Z,97025.44
2023-07-25T00:17:10.669Z,97025.44
2023-07-25T00:17:22.478Z,97028.13
2023-07-25T00:17:34.272Z,97026.22
2023-07-25T00:17:46.054Z,97025.13
2023-07-25T00:17:58.087Z,97027.50
2023-07-25T00:18:09.877Z,97026.72
2023-07-25T00:18:22.565Z,97022.94
2023-07-25T00:18:35.376Z,97022.94
2023-07-25T00:18:47.093Z,97022.16
2023-07-25T00:18:58.787Z,97024.03
2023-07-25T00:19:10.465Z,97021.34
2023-07-25T00:19:22.188Z,97017.91
2023-07-25T00:19:33.914Z,97024.03
2023-07-25T00:19:46.618Z,97021.34
2023-07-25T00:19:59.703Z,97025.94
2023-07-25T00:20:12.035Z,97027.00
2023-07-25T00:20:23.776Z,97026.72
2023-07-25T00:20:35.517Z,97026.72
2023-07-25T00:20:47.255Z,97021.34
2023-07-25T00:20:59.047Z,97019.78
2023-07-25T00:21:10.850Z,97026.72
2023-07-25T00:21:23.602Z,97023.75
2023-07-25T00:21:35.572Z,97018.66
2023-07-25T00:21:47.665Z,97022.16
2023-07-25T00:21:59.450Z,97024.03
2023-07-25T00:22:11.869Z,97024.84
2023-07-25T00:22:23.907Z,97025.63
2023-07-25T00:22:35.645Z,97013.81
2023-07-25T00:22:47.412Z,97022.94
2023-07-25T00:22:59.116Z,97017.59
2023-07-25T00:23:11.804Z,97019.97
2023-07-25T00:23:23.514Z,97018.38
2023-07-25T00:23:35.224Z,97019.19
2023-07-25T00:23:46.920Z,97025.13
2023-07-25T00:23:58.640Z,97023.53
2023-07-25T00:24:10.328Z,97017.91
2023-07-25T00:24:22.055Z,97021.34
2023-07-25T00:24:34.811Z,97020.56
2023-07-25T00:24:46.730Z,97017.91
2023-07-25T00:24:58.498Z,97023.25
2023-07-25T00:25:11.180Z,97025.94
2023-07-25T00:25:23.327Z,97017.59
2023-07-25T00:25:35.192Z,97019.47
2023-07-25T00:25:46.948Z,97015.97
2023-07-25T00:25:58.692Z,97023.25
2023-07-25T00:26:10.446Z,97018.16
2023-07-25T00:26:22.155Z,97024.34
2023-07-25T00:26:34.880Z,97025.13
2023-07-25T00:26:46.586Z,97023.53
2023-07-25T00:26:58.273Z,97023.53
2023-07-25T00:27:09.981Z,97020.06
2023-07-25T00:27:21.751Z,97021.97
2023-07-25T00:27:33.483Z,97017.41
2023-07-25T00:27:45.202Z,97022.75
2023-07-25T00:27:56.914Z,97024.34
2023-07-25T00:28:08.606Z,97023.53
2023-07-25T00:28:23.483Z,97017.66
2023-07-25T00:28:35.235Z,97016.97
2023-07-25T00:28:47.041Z,97023.44
2023-07-25T00:28:58.740Z,97019.66
2023-07-25T00:29:10.572Z,97026.09
2023-07-25T00:29:22.437Z,97021.34
2023-07-25T00:29:34.130Z,97027.78
2023-07-25T00:29:45.865Z,97028.41
2023-07-25T00:29:58.709Z,97024.41
2023-07-25T00:30:11.076Z,97024.69
2023-07-25T00:30:22.946Z,97023.94
2023-07-25T00:30:34.717Z,97025.50
2023-07-25T00:30:46.410Z,97020.94
2023-07-25T00:30:58.081Z,97024.13
2023-07-25T00:31:09.836Z,97022.25
2023-07-25T00:31:22.571Z,97026.50
2023-07-25T00:31:34.599Z,97015.78
2023-07-25T00:31:46.631Z,97025.91
2023-07-25T00:31:58.354Z,97029.66
2023-07-25T00:32:10.301Z,97023.53
2023-07-25T00:32:22.080Z,97024.63
2023-07-25T00:32:34.980Z,97022.44
2023-07-25T00:32:46.728Z,97020.56
2023-07-25T00:32:58.493Z,97023.53
2023-07-25T00:33:10.324Z,97013.59
2023-07-25T00:33:22.095Z,97022.44
2023-07-25T00:33:34.823Z,97021.94
2023-07-25T00:33:46.518Z,97022.72
2023-07-25T00:33:58.232Z,97019.25
2023-07-25T00:34:09.929Z,97021.94
2023-07-25T00:34:21.641Z,97018.94
2023-07-25T00:34:33.352Z,97021.63
2023-07-25T00:34:45.055Z,97016.25
2023-07-25T00:34:56.738Z,97023.81
2023-07-25T00:35:09.929Z,97014.19
2023-07-25T00:35:21.609Z,97028.41
2023-07-25T00:35:34.283Z,97017.38
2023-07-25T00:35:52.205Z,97020.56
2023-07-25T00:36:04.439Z,97021.34
2023-07-25T00:36:16.147Z,97025.91
2023-07-25T00:36:27.929Z,97019.75
2023-07-25T00:36:39.681Z,97017.06
2023-07-25T00:36:51.550Z,97017.88
2023-07-25T00:37:03.409Z,97026.22
2023-07-25T00:37:15.119Z,97025.72
2023-07-25T00:37:28.833Z,97018.44
2023-07-25T00:37:41.502Z,97021.94
2023-07-25T00:37:53.239Z,97022.72
2023-07-25T00:38:05.329Z,97014.69
2023-07-25T00:38:17.010Z,97018.94
2023-07-25T00:38:28.683Z,97018.94
2023-07-25T00:38:40.421Z,97010.13
2023-07-25T00:38:52.146Z,97018.66
2023-07-25T00:39:03.996Z,97018.38
2023-07-25T00:39:15.692Z,97014.88
2023-07-25T00:39:28.380Z,97016.47
2023-07-25T00:39:40.089Z,97016.47
2023-07-25T00:39:53.652Z,97014.06
2023-07-25T00:40:06.587Z,97020.25
2023-07-25T00:40:18.316Z,97022.94
2023-07-25T00:40:30.035Z,97014.59
2023-07-25T00:40:41.740Z,97020.47
2023-07-25T00:40:53.444Z,97021.25
2023-07-25T00:41:06.203Z,97023.66
2023-07-25T00:41:17.981Z,97023.66
2023-07-25T00:41:29.899Z,97018.78
2023-07-25T00:41:41.833Z,97018.78
2023-07-25T00:41:53.571Z,97018.78
2023-07-25T00:42:06.157Z,97016.91
2023-07-25T00:42:18.045Z,97017.66
2023-07-25T00:42:29.787Z,97013.09
2023-07-25T00:42:41.708Z,97017.66
2023-07-25T00:42:56.528Z,97013.41
2023-07-25T00:43:09.199Z,97009.63
2023-07-25T00:43:20.908Z,97014.22
2023-07-25T00:43:32.618Z,97015.00
2023-07-25T00:43:44.410Z,97013.09
2023-07-25T00:43:56.110Z,97012.31
2023-07-25T00:44:07.932Z,97010.72
2023-07-25T00:44:19.602Z,97014.22
2023-07-25T00:44:31.307Z,97011.22
2023-07-25T00:44:44.034Z,97002.38
2023-07-25T00:44:55.715Z,97006.66
2023-07-25T00:45:09.104Z,97010.13
2023-07-25T00:45:20.817Z,97007.44
2023-07-25T00:45:32.648Z,97008.25
2023-07-25T00:45:44.658Z,97002.06
2023-07-25T00:45:56.476Z,97009.03
2023-07-25T00:46:08.507Z,97005.88
2023-07-25T00:46:20.398Z,96996.72
2023-07-25T00:46:33.224Z,97004.75
2023-07-25T00:46:45.301Z,97002.06
2023-07-25T00:46:56.999Z,97003.97
2023-07-25T00:47:08.734Z,97002.88
2023-07-25T00:47:22.717Z,97000.19
2023-07-25T00:47:34.705Z,97007.44
2023-07-25T00:47:46.542Z,97007.44
2023-07-25T00:47:58.325Z,96997.00
2023-07-25T00:48:10.064Z,97000.50
2023-07-25T00:48:22.752Z,96997.81
2023-07-25T00:48:34.580Z,97005.56
2023-07-25T00:48:46.569Z,97006.34
2023-07-25T00:48:58.298Z,97006.34
2023-07-25T00:49:10.076Z,97010.63
2023-07-25T00:49:21.952Z,97003.19
2023-07-25T00:49:33.636Z,97002.69
2023-07-25T00:49:45.670Z,97008.31
2023-07-25T00:49:57.439Z,97004.88
2023-07-25T00:50:11.713Z,97005.63
2023-07-25T00:50:23.520Z,96999.50
2023-07-25T00:50:35.438Z,97006.44
2023-07-25T00:50:47.251Z,97002.69
2023-07-25T00:50:58.940Z,97002.69
2023-07-25T00:51:10.669Z,97000.00
2023-07-25T00:51:22.744Z,96995.44
2023-07-25T00:51:35.189Z,97002.69
2023-07-25T00:51:46.942Z,97001.56
2023-07-25T00:51:58.624Z,97001.56
2023-07-25T00:52:10.485Z,97001.31
2023-07-25T00:52:23.203Z,97004.75
2023-07-25T00:52:35.024Z,97004.75
2023-07-25T00:52:46.729Z,96999.13
2023-07-25T00:52:59.784Z,97000.69
2023-07-25T00:53:11.915Z,97006.84
2023-07-25T00:53:24.657Z,96992.38
2023-07-25T00:53:36.809Z,96999.59
2023-07-25T00:53:48.563Z,97000.91
2023-07-25T00:54:01.948Z,96997.72
2023-07-25T00:54:13.798Z,97003.38
2023-07-25T00:54:25.509Z,97003.09
2023-07-25T00:54:38.944Z,96999.59
2023-07-25T00:54:51.700Z,97002.28
2023-07-25T00:55:04.199Z,97004.16
2023-07-25T00:55:15.970Z,96998.31
2023-07-25T00:55:28.541Z,97004.16
2023-07-25T00:55:40.292Z,97001.50
2023-07-25T00:55:52.957Z,96997.72
2023-07-25T00:56:05.387Z,97008.16
2023-07-25T00:56:17.302Z,97006.28
2023-07-25T00:56:29.057Z,97005.16
2023-07-25T00:56:40.755Z,97008.94
2023-07-25T00:56:52.471Z,97007.34
2023-07-25T00:57:04.759Z,97005.47
2023-07-25T00:57:17.526Z,97003.09
2023-07-25T00:57:29.365Z,97009.22
2023-07-25T00:57:42.066Z,97010.03
2023-07-25T00:57:53.834Z,97003.88
2023-07-25T00:58:05.649Z,97003.38
2023-07-25T00:58:17.569Z,97010.84
2023-07-25T00:58:29.827Z,97013.53
2023-07-25T00:58:41.538Z,97008.47
2023-07-25T00:58:53.498Z,97013.81
2023-07-25T00:59:05.532Z,97008.47
2023-07-25T00:59:17.425Z,97009.84
2023-07-25T00:59:29.095Z,97012.22
2023-07-25T00:59:41.884Z,97011.16
2023-07-25T00:59:53.631Z,97008.47
2023-07-25T01:00:06.912Z,97015.41
2023-07-25T01:00:18.711Z,97006.28
2023-07-25T01:00:30.418Z,97008.94
2023-07-25T01:00:43.136Z,97013.22
2023-07-25T01:01:02.552Z,97009.44
2023-07-25T01:01:14.261Z,97018.56
2023-07-25T01:01:26.820Z,97014.00
2023-07-25T01:01:38.763Z,97007.84
2023-07-25T01:01:50.545Z,97016.69
2023-07-25T01:02:02.312Z,97013.22
2023-07-25T01:02:14.772Z,97015.91
2023-07-25T01:02:26.725Z,97010.53
2023-07-25T01:02:38.582Z,97012.91
2023-07-25T01:02:51.511Z,97014.00
2023-07-25T01:03:03.529Z,97014.81
2023-07-25T01:03:15.629Z,97020.19
2023-07-25T01:03:27.464Z,97013.72
2023-07-25T01:03:39.867Z,97015.59
2023-07-25T01:03:54.562Z,97010.22
2023-07-25T01:04:06.561Z,97015.59
2023-07-25T01:04:18.583Z,97020.94
2023-07-25T01:04:30.290Z,97011.03
2023-07-25T01:04:42.747Z,97012.13
2023-07-25T01:04:55.605Z,97019.06
2023-07-25T01:05:07.620Z,97020.19
2023-07-25T01:05:20.720Z,97018.28
2023-07-25T01:05:34.199Z,97016.38
2023-07-25T01:05:48.360Z,97017.50
2023-07-25T01:06:01.416Z,97012.91
2023-07-25T01:06:14.286Z,97020.19
2023-07-25T01:06:26.011Z,97022.88
2023-07-25T01:06:38.339Z,97014.81
2023-07-25T01:06:50.602Z,97020.94
2023-07-25T01:07:03.852Z,97014.81
2023-07-25T01:07:16.004Z,97015.59
2023-07-25T01:07:27.979Z,97013.22
2023-07-25T01:07:41.224Z,97026.31
2023-07-25T01:07:52.954Z,97022.56
2023-07-25T01:08:05.179Z,97015.31
2023-07-25T01:08:16.936Z,97017.19
2023-07-25T01:08:28.647Z,97018.00
2023-07-25T01:08:48.361Z,97016.88
2023-07-25T01:09:01.030Z,97016.88
2023-07-25T01:09:12.722Z,97012.63
2023-07-25T01:09:41.218Z,97012.63
2023-07-25T01:09:52.953Z,97014.19
2023-07-25T01:10:05.110Z,97015.00
2023-07-25T01:10:16.840Z,97013.44
2023-07-25T01:10:28.521Z,97008.34
2023-07-25T01:10:41.224Z,97014.81
2023-07-25T01:10:52.958Z,97009.44
2023-07-25T01:11:04.698Z,97012.13
2023-07-25T01:11:16.543Z,97017.50
2023-07-25T01:11:29.245Z,97020.19
2023-07-25T01:11:41.054Z,97020.19
2023-07-25T01:11:52.784Z,97011.03
2023-07-25T01:12:06.201Z,97012.63
2023-07-25T01:12:17.872Z,97012.63
2023-07-25T01:12:29.854Z,97014.19
2023-07-25T01:12:42.566Z,97009.63
2023-07-25T01:12:54.251Z,97015.81
2023-07-25T01:13:06.075Z,97010.44
2023-07-25T01:13:17.803Z,97008.56
2023-07-25T01:13:29.527Z,97012.63
2023-07-25T01:13:41.292Z,97007.25
2023-07-25T01:13:53.056Z,97008.34
2023-07-25T01:14:04.822Z,97004.84
2023-07-25T01:14:16.529Z,97019.38
2023-07-25T01:14:28.245Z,97008.66
2023-07-25T01:14:40.605Z,97002.16
2023-07-25T01:14:53.380Z,97005.66
2023-07-25T01:15:05.815Z,97005.66
2023-07-25T01:15:17.817Z,97005.38
2023-07-25T01:15:29.721Z,97004.59
2023-07-25T01:15:41.961Z,97007.25
2023-07-25T01:15:54.426Z,97004.59
2023-07-25T01:16:06.596Z,97001.09
2023-07-25T01:16:22.183Z,97002.47
2023-07-25T01:16:34.822Z,97010.63
2023-07-25T01:16:46.552Z,97008.53
2023-07-25T01:16:59.048Z,97001.09
2023-07-25T01:17:12.718Z,97001.97
2023-07-25T01:17:26.160Z,97006.03
2023-07-25T01:17:38.028Z,97003.34
2023-07-25T01:17:51.378Z,96997.50
2023-07-25T01:18:03.257Z,97002.66
2023-07-25T01:18:15.097Z,97003.75
2023-07-25T01:18:26.968Z,97004.53
2023-07-25T01:18:38.809Z,96998.09
2023-07-25T01:18:51.738Z,97003.47
2023-07-25T01:19:03.659Z,96999.69
2023-07-25T01:19:18.226Z,97006.34
2023-07-25T01:19:30.955Z,96999.91
2023-07-25T01:19:44.958Z,97003.88
2023-07-25T01:19:58.024Z,97005.44
2023-07-25T01:20:12.058Z,97004.88
2023-07-25T01:20:25.535Z,96999.50
2023-07-25T01:20:37.951Z,97002.19
2023-07-25T01:20:49.796Z,97001.09
2023-07-25T01:21:01.513Z,97002.69
2023-07-25T01:21:13.604Z,96998.91
2023-07-25T01:21:25.515Z,96998.13
2023-07-25T01:21:37.453Z,97000.50
2023-07-25T01:21:49.192Z,96991.34
2023-07-25T01:22:01.142Z,96999.88
2023-07-25T01:22:13.916Z,97002.56
2023-07-25T01:22:26.953Z,96998.81
2023-07-25T01:22:39.425Z,96999.59
2023-07-25T01:22:52.185Z,97000.41
2023-07-25T01:23:06.171Z,96998.81
2023-07-25T01:23:18.725Z,96998.50
2023-07-25T01:23:30.825Z,96992.38
2023-07-25T01:23:42.924Z,96989.38
2023-07-25T01:24:00.598Z,96995.53
2023-07-25T01:24:13.451Z,96995.53
2023-07-25T01:24:25.555Z,96997.13
2023-07-25T01:24:37.871Z,96989.06
2023-07-25T01:24:49.735Z,96997.91
2023-07-25T01:25:01.468Z,96994.13
2023-07-25T01:25:13.277Z,96994.13
2023-07-25T01:25:24.976Z,96990.38
2023-07-25T01:25:36.765Z,96993.84
2023-07-25T01:25:48.522Z,96996.53
2023-07-25T01:26:00.966Z,96988.75
2023-07-25T01:26:13.658Z,96994.66
2023-07-25T01:26:25.401Z,96998.09
2023-07-25T01:26:37.117Z,96994.66
2023-07-25T01:26:48.892Z,96988.97
2023-07-25T01:27:00.617Z,96984.41
2023-07-25T01:27:12.404Z,96992.47
2023-07-25T01:27:24.156Z,96990.56
2023-07-25T01:27:35.884Z,96984.09
2023-07-25T01:27:47.799Z,96987.88
2023-07-25T01:27:59.541Z,96991.66
2023-07-25T01:28:11.263Z,96988.97
2023-07-25T01:28:24.293Z,96988.19
2023-07-25T01:28:38.325Z,96991.66
2023-07-25T01:28:50.057Z,96988.19
2023-07-25T01:29:01.738Z,96986.78
2023-07-25T01:29:13.404Z,96982.50
2023-07-25T01:29:25.156Z,96985.19
2023-07-25T01:29:36.902Z,96986.00
2023-07-25T01:29:48.592Z,96987.09
2023-07-25T01:30:01.293Z,96985.50
2023-07-25T01:30:13.069Z,96983.63
2023-07-25T01:30:24.826Z,96991.16
2023-07-25T01:30:36.529Z,96986.06
2023-07-25T01:30:48.421Z,96989.88
2023-07-25T01:31:00.227Z,96988.25
2023-07-25T01:31:11.940Z,96989.16
2023-07-25T01:31:23.648Z,96990.25
2023-07-25T01:31:35.362Z,96987.59
2023-07-25T01:31:47.091Z,96996.72
2023-07-25T01:31:59.751Z,96986.78
2023-07-25T01:32:11.873Z,96991.34
2023-07-25T01:32:23.691Z,96992.44
2023-07-25T01:32:35.627Z,96994.34
2023-07-25T01:32:47.367Z,96988.16
2023-07-25T01:32:59.098Z,96995.72
2023-07-25T01:33:10.926Z,96990.34
2023-07-25T01:33:22.656Z,96987.41
2023-07-25T01:33:34.396Z,96997.31
2023-07-25T01:33:47.060Z,96994.63
2023-07-25T01:33:58.813Z,96990.66
2023-07-25T01:34:10.606Z,96992.53
2023-07-25T01:34:22.415Z,96997.91
2023-07-25T01:34:34.162Z,96986.09
2023-07-25T01:34:45.900Z,96991.72
2023-07-25T01:34:57.718Z,96993.16
2023-07-25T01:35:09.413Z,96989.94
2023-07-25T01:35:21.270Z,96992.63
2023-07-25T01:35:32.970Z,96988.06
2023-07-25T01:35:45.661Z,96991.25
2023-07-25T01:35:57.420Z,96988.56
2023-07-25T01:36:09.143Z,96992.84
2023-07-25T01:36:20.910Z,96989.06
2023-07-25T01:36:32.605Z,96987.16
2023-07-25T01:36:44.345Z,96987.16
2023-07-25T01:36:56.072Z,96994.41
2023-07-25T01:37:08.656Z,96992.03
2023-07-25T01:37:20.960Z,96990.16
2023-07-25T01:37:33.675Z,96985.59
2023-07-25T01:37:45.376Z,96987.16
2023-07-25T01:37:57.081Z,96987.16
2023-07-25T01:38:08.838Z,96988.78
2023-07-25T01:38:20.558Z,96984.19
2023-07-25T01:38:32.248Z,96986.09
2023-07-25T01:38:43.947Z,96986.88
2023-07-25T01:38:55.670Z,96985.00
2023-07-25T01:39:08.742Z,96988.16
2023-07-25T01:39:21.455Z,96988.97
2023-07-25T01:39:33.127Z,96984.41
2023-07-25T01:39:45.115Z,96977.44
2023-07-25T01:39:56.899Z,96979.84
2023-07-25T01:40:09.868Z,96984.09
2023-07-25T01:40:21.649Z,96983.28
2023-07-25T01:40:33.355Z,96985.97
2023-07-25T01:40:45.030Z,96986.78
2023-07-25T01:40:56.710Z,96985.97
2023-07-25T01:41:08.416Z,96984.09
2023-07-25T01:41:21.116Z,96985.97
2023-07-25T01:41:33.139Z,96987.59
2023-07-25T01:41:45.193Z,96987.59
2023-07-25T01:41:56.918Z,96984.91
2023-07-25T01:42:08.626Z,96986.78
2023-07-25T01:42:20.828Z,96982.22
2023-07-25T01:42:32.960Z,96989.47
2023-07-25T01:42:44.672Z,96985.97
2023-07-25T01:42:56.411Z,96984.41
2023-07-25T01:43:09.273Z,96989.78
2023-07-25T01:43:21.004Z,96987.41
2023-07-25T01:43:32.767Z,96991.97
2023-07-25T01:43:44.434Z,96982.31
2023-07-25T01:43:56.190Z,96983.09
2023-07-25T01:44:07.958Z,96982.31
2023-07-25T01:44:19.662Z,96972.69
2023-07-25T01:44:31.411Z,96989.56
2023-07-25T01:44:43.128Z,96985.00
2023-07-25T01:44:55.806Z,96985.00
2023-07-25T01:45:08.772Z,96979.63
2023-07-25T01:45:20.698Z,96985.00
2023-07-25T01:45:32.475Z,96989.28
2023-07-25T01:45:44.286Z,96985.78
2023-07-25T01:45:56.121Z,96981.22
2023-07-25T01:46:07.893Z,96983.91
2023-07-25T01:46:19.721Z,96984.72
2023-07-25T01:46:31.469Z,96979.34
2023-07-25T01:46:43.166Z,96988.97
2023-07-25T01:46:57.125Z,96985.47
2023-07-25T01:47:08.866Z,96985.47
2023-07-25T01:47:26.453Z,96982.53
2023-07-25T01:47:38.310Z,96988.66
2023-07-25T01:47:50.152Z,96983.28
2023-07-25T01:48:01.881Z,96989.47
2023-07-25T01:48:13.594Z,96982.22
2023-07-25T01:48:25.375Z,96982.22
2023-07-25T01:48:38.037Z,96978.72
2023-07-25T01:48:50.066Z,96979.84
2023-07-25T01:49:01.788Z,96977.75
2023-07-25T01:49:13.962Z,96983.41
2023-07-25T01:49:25.673Z,96985.59
2023-07-25T01:49:37.398Z,96977.81
2023-07-25T01:49:49.078Z,96982.13
2023-07-25T01:50:00.822Z,96979.44
2023-07-25T01:50:12.530Z,96978.03
2023-07-25T01:50:25.214Z,96979.94
2023-07-25T01:50:36.902Z,96975.38
2023-07-25T01:50:48.588Z,96981.22
2023-07-25T01:51:00.290Z,96977.44
2023-07-25T01:51:11.992Z,96982.53
2023-07-25T01:51:23.666Z,96970.19
2023-07-25T01:51:35.381Z,96983.59
2023-07-25T01:51:47.084Z,96982.03
2023-07-25T01:51:58.864Z,96985.47
2023-07-25T01:52:11.529Z,96979.34
2023-07-25T01:52:23.327Z,96978.81
2023-07-25T01:52:35.054Z,96971.88
2023-07-25T01:52:46.773Z,96980.22
2023-07-25T01:52:58.480Z,96977.56
2023-07-25T01:53:10.183Z,96976.44
2023-07-25T01:53:21.889Z,96978.03
2023-07-25T01:53:33.595Z,96978.81
2023-07-25T01:53:45.304Z,96984.72
2023-07-25T01:53:59.410Z,96980.41
2023-07-25T01:54:13.461Z,96974.25
2023-07-25T01:54:25.280Z,96973.47
2023-07-25T01:54:37.006Z,96985.00
2023-07-25T01:54:49.649Z,96982.03
2023-07-25T01:55:01.387Z,96977.44
2023-07-25T01:55:13.096Z,96981.72
2023-07-25T01:55:24.839Z,96980.63
2023-07-25T01:55:37.623Z,96964.53
2023-07-25T01:55:49.324Z,96976.03
2023-07-25T01:56:01.116Z,96973.38
2023-07-25T01:56:13.797Z,96978.72
2023-07-25T01:56:25.981Z,96974.47
2023-07-25T01:56:37.746Z,96980.63
2023-07-25T01:56:50.982Z,96977.94
2023-07-25T01:57:02.960Z,96971.78
2023-07-25T01:57:14.762Z,96978.25
2023-07-25T01:57:26.532Z,96973.69
2023-07-25T01:57:39.316Z,96972.56
2023-07-25T01:57:51.019Z,96974.47
2023-07-25T01:58:02.721Z,96971.47
2023-07-25T01:58:14.439Z,96974.16
2023-07-25T01:58:26.169Z,96979.53
2023-07-25T01:58:37.834Z,96977.66
2023-07-25T01:58:49.558Z,96970.38
2023-07-25T01:59:01.280Z,96968.50
2023-07-25T01:59:13.085Z,96966.94
2023-07-25T01:59:25.782Z,96967.69
2023-07-25T01:59:37.458Z,96974.66
2023-07-25T01:59:50.273Z,96970.09
2023-07-25T02:00:02.110Z,96972.47
2023-07-25T02:00:14.304Z,96970.59
2023-07-25T02:00:26.011Z,96975.97
2023-07-25T02:00:37.686Z,96964.13
2023-07-25T02:00:49.632Z,96970.28
2023-07-25T02:01:02.567Z,96968.72
2023-07-25T02:01:14.308Z,96965.22
2023-07-25T02:01:26.082Z,96964.91
2023-07-25T02:01:37.837Z,96967.59
2023-07-25T02:01:49.661Z,96964.91
2023-07-25T02:02:01.413Z,96971.88
2023-07-25T02:02:13.182Z,96971.09
2023-07-25T02:02:24.953Z,96971.09
2023-07-25T02:02:36.724Z,96975.34
2023-07-25T02:02:49.657Z,96974.56
2023-07-25T02:03:01.464Z,96971.88
2023-07-25T02:03:16.998Z,96971.88
2023-07-25T02:03:29.022Z,96971.88
2023-07-25T02:03:40.739Z,96977.25
2023-07-25T02:03:52.500Z,96971.88
2023-07-25T02:04:04.499Z,96969.22
2023-07-25T02:04:16.268Z,96968.09
2023-07-25T02:04:28.051Z,96973.47
2023-07-25T02:04:40.806Z,96977.25
2023-07-25T02:04:52.557Z,96974.84
2023-07-25T02:05:05.088Z,96976.25
2023-07-25T02:05:16.885Z,96976.84
2023-07-25T02:05:28.615Z,96977.44
2023-07-25T02:05:40.374Z,96973.97
2023-07-25T02:05:52.102Z,96974.25
2023-07-25T02:06:05.254Z,96971.56
2023-07-25T02:06:16.956Z,96974.25
2023-07-25T02:06:28.717Z,96978.03
2023-07-25T02:06:41.388Z,96972.19
2023-07-25T02:06:53.086Z,96969.50
2023-07-25T02:07:05.379Z,96979.13
2023-07-25T02:07:17.046Z,96972.69
2023-07-25T02:07:28.733Z,96973.19
2023-07-25T02:07:40.409Z,96972.06
2023-07-25T02:07:52.808Z,96972.06
2023-07-25T02:08:05.061Z,96965.94
2023-07-25T02:08:16.775Z,96968.31
2023-07-25T02:08:28.443Z,96967.50
2023-07-25T02:08:40.191Z,96962.94
2023-07-25T02:08:52.880Z,96969.88
2023-07-25T02:09:04.579Z,96972.56
2023-07-25T02:09:18.078Z,96962.94
2023-07-25T02:09:29.777Z,96968.00
2023-07-25T02:09:41.521Z,96966.44
2023-07-25T02:09:53.460Z,96960.25
2023-07-25T02:10:06.335Z,96965.63
2023-07-25T02:10:18.420Z,96962.94
2023-07-25T02:10:33.227Z,96958.97
2023-07-25T02:10:44.963Z,96963.84
2023-07-25T02:10:56.692Z,96953.50
2023-07-25T02:11:08.629Z,96958.28
2023-07-25T02:11:20.321Z,96953.50
2023-07-25T02:11:32.231Z,96960.66
2023-07-25T02:11:44.220Z,96965.22
2023-07-25T02:11:55.933Z,96957.16
2023-07-25T02:12:08.791Z,96961.72
2023-07-25T02:12:20.533Z,96952.38
2023-07-25T02:12:32.241Z,96953.19
2023-07-25T02:12:44.938Z,96957.47
2023-07-25T02:12:57.224Z,96954.00
2023-07-25T02:13:09.058Z,96957.47
2023-07-25T02:13:20.832Z,96952.38
2023-07-25T02:13:32.671Z,96952.38
2023-07-25T02:13:44.399Z,96954.00
2023-07-25T02:13:56.253Z,96952.69
2023-07-25T02:14:07.950Z,96958.06
2023-07-25T02:14:19.718Z,96958.06
2023-07-25T02:14:31.394Z,96955.38
2023-07-25T02:14:43.105Z,96962.34
2023-07-25T02:14:55.826Z,96957.00
2023-07-25T02:15:08.733Z,96955.38
2023-07-25T02:15:20.472Z,96958.88
2023-07-25T02:15:32.199Z,96960.44
2023-07-25T02:15:43.922Z,96960.44
2023-07-25T02:15:55.668Z,96962.84
2023-07-25T02:16:07.504Z,96960.66
2023-07-25T02:16:19.258Z,96967.91
2023-07-25T02:16:34.916Z,96960.66
2023-07-25T02:16:46.719Z,96963.34
2023-07-25T02:16:58.812Z,96961.72
2023-07-25T02:17:10.652Z,96963.91
2023-07-25T02:17:22.567Z,96963.13
2023-07-25T02:17:34.333Z,96970.41
2023-07-25T02:17:46.116Z,96966.91
2023-07-25T02:17:57.868Z,96965.31
2023-07-25T02:18:09.584Z,96962.94
2023-07-25T02:18:21.310Z,96962.94
2023-07-25T02:18:34.064Z,96969.09
2023-07-25T02:18:45.747Z,96965.31
2023-07-25T02:18:57.466Z,96966.91
2023-07-25T02:19:09.276Z,96968.47
2023-07-25T02:19:21.021Z,96965.03
2023-07-25T02:19:32.743Z,96966.59
2023-07-25T02:19:44.421Z,96968.22
2023-07-25T02:19:56.116Z,96963.91
2023-07-25T02:20:08.806Z,96961.53
2023-07-25T02:20:21.208Z,96971.97
2023-07-25T02:20:34.253Z,96971.47
2023-07-25T02:20:45.976Z,96964.22
2023-07-25T02:20:57.675Z,96968.59
2023-07-25T02:21:09.405Z,96967.00
2023-07-25T02:21:21.141Z,96970.47
2023-07-25T02:21:33.241Z,96965.91
2023-07-25T02:21:45.296Z,96967.81
2023-07-25T02:21:57.012Z,96972.84
2023-07-25T02:22:08.761Z,96966.72
2023-07-25T02:22:21.451Z,96972.09
2023-07-25T02:22:33.162Z,96962.13
2023-07-25T02:22:44.877Z,96975.53